Time;durP1;ratioP1;P1;durP2;ratioP2;P2;SDS_P1;SDS_P2;PMS_P1;PMS_P2;Temp;Humidity;BMP_temperature;BMP_pressure;BME280_temperature;BME280_humidity;BME280_pressure;Samples;Min_cycle;Max_cycle;Signal;HPM_P1;HPM_P2
2021/12/18 00:01:51;;;;;;;15.45;11.00;;;;;;;10.07;71.20;103970.28;5060005;28;20351;-60
2021/12/18 00:04:19;;;;;;;13.48;10.07;;;;;;;10.07;71.47;103974.81;5068104;28;20045;-60
2021/12/18 00:06:49;;;;;;;12.68;9.70;;;;;;;10.07;71.51;103975.66;5068117;28;20048;-60
2021/12/18 00:09:16;;;;;;;13.43;9.55;;;;;;;10.08;71.42;103971.13;5065289;28;20072;-60
2021/12/18 00:11:45;;;;;;;14.13;9.75;;;;;;;10.09;71.04;103970.16;5076941;28;20052;-54
2021/12/18 00:14:13;;;;;;;14.27;10.07;;;;;;;10.10;71.11;103975.38;5065105;28;20088;-60
2021/12/18 00:16:41;;;;;;;13.50;9.25;;;;;;;10.10;71.42;103969.16;5063231;28;20077;-59
2021/12/18 00:19:09;;;;;;;12.55;9.10;;;;;;;10.09;71.41;103964.78;5063263;28;20049;-60
2021/12/18 00:21:37;;;;;;;14.23;9.57;;;;;;;10.10;71.52;103969.16;5068800;28;20056;-60
2021/12/18 00:24:08;;;;;;;14.07;9.90;;;;;;;10.09;71.18;103962.94;5064142;28;20052;-60
2021/12/18 00:26:36;;;;;;;11.23;8.30;;;;;;;10.09;71.24;103962.09;5071353;28;20048;-60
2021/12/18 00:29:04;;;;;;;14.15;9.88;;;;;;;10.08;71.30;103965.75;5066036;28;20070;-59
2021/12/18 00:31:32;;;;;;;11.95;8.45;;;;;;;10.08;71.18;103961.22;5073443;28;20055;-55
2021/12/18 00:34:00;;;;;;;13.90;9.50;;;;;;;10.08;71.00;103955.00;5072227;28;20152;-60
2021/12/18 00:36:30;;;;;;;13.02;9.05;;;;;;;10.05;71.48;103953.47;5063451;28;20048;-57
2021/12/18 00:38:58;;;;;;;11.63;8.25;;;;;;;10.07;71.58;103951.47;5063454;28;20060;-61
2021/12/18 00:41:37;;;;;;;11.75;8.23;;;;;;;10.07;71.14;103950.63;5063518;28;20056;-61
2021/12/18 00:44:05;;;;;;;12.63;8.70;;;;;;;10.05;71.65;103941.88;5064132;28;20048;-60
2021/12/18 00:46:35;;;;;;;11.85;8.20;;;;;;;10.04;71.44;103950.91;5074102;28;20052;-53
2021/12/18 00:49:04;;;;;;;11.95;8.50;;;;;;;10.04;71.69;103942.84;5067356;28;20315;-60
2021/12/18 00:51:33;;;;;;;11.45;8.07;;;;;;;10.05;71.14;103953.47;5068837;28;20559;-60
2021/12/18 00:54:01;;;;;;;11.00;7.97;;;;;;;10.03;71.75;103939.31;5069851;28;20061;-60
2021/12/18 00:56:30;;;;;;;11.63;8.15;;;;;;;10.03;71.67;103939.31;5064321;28;20056;-60
2021/12/18 00:58:59;;;;;;;11.77;8.40;;;;;;;10.04;71.87;103938.31;5063032;28;20497;-61
2021/12/18 01:01:28;;;;;;;11.32;8.05;;;;;;;10.04;71.43;103950.91;5066052;28;20068;-61
2021/12/18 01:03:57;;;;;;;14.00;8.85;;;;;;;10.04;71.80;103951.75;5055517;28;20100;-61
2021/12/18 01:06:27;;;;;;;10.75;7.90;;;;;;;10.03;71.88;103939.31;5062633;28;20136;-61
2021/12/18 01:08:57;;;;;;;11.30;8.65;;;;;;;10.03;71.92;103935.78;5066269;28;20076;-61
2021/12/18 01:11:35;;;;;;;13.85;9.38;;;;;;;10.03;71.35;103941.16;5065253;28;20197;-60
2021/12/18 01:14:27;;;;;;;10.90;7.50;;;;;;;10.02;71.86;103934.94;5059745;28;20083;-58
2021/12/18 01:22:41;;;;;;;10.40;7.45;;;;;;;10.03;71.95;103943.84;5066553;28;20767;-61
2021/12/18 01:25:25;;;;;;;12.07;8.23;;;;;;;10.01;71.97;103938.59;4984663;28;20055;-61
2021/12/18 01:27:53;;;;;;;12.32;8.48;;;;;;;10.01;71.94;103938.59;4984444;28;20075;-60
2021/12/18 01:30:22;;;;;;;10.10;7.53;;;;;;;10.01;71.62;103935.06;4980313;28;20193;-61
2021/12/18 01:32:50;;;;;;;11.07;8.38;;;;;;;10.01;71.97;103938.59;4980982;28;20061;-59
2021/12/18 01:35:19;;;;;;;12.30;8.80;;;;;;;10.01;72.10;103927.84;4982066;28;20054;-61
2021/12/18 01:37:49;;;;;;;12.15;8.40;;;;;;;10.01;71.89;103932.38;4981502;28;20237;-60
2021/12/18 01:40:18;;;;;;;12.63;8.73;;;;;;;9.94;72.19;103917.81;4982585;28;20054;-61
2021/12/18 01:45:47;;;;;;;11.55;8.25;;;;;;;9.93;71.78;103924.19;4984094;28;20402;-61
2021/12/18 01:53:54;;;;;;;13.20;8.95;;;;;;;10.03;71.60;103941.16;4979770;28;20105;-61
2021/12/18 01:56:25;;;;;;;12.48;7.85;;;;;;;10.02;71.88;103937.63;4981345;28;20047;-60
2021/12/18 01:58:53;;;;;;;12.73;8.73;;;;;;;9.93;71.74;103924.19;4992784;28;20062;-61
2021/12/18 02:01:22;;;;;;;11.05;8.43;;;;;;;9.94;71.59;103928.56;5024477;28;20053;-57
2021/12/18 02:03:51;;;;;;;14.25;9.13;;;;;;;10.02;72.08;103947.53;5062027;28;20794;-61
2021/12/18 02:06:20;;;;;;;14.93;9.05;;;;;;;9.92;71.62;103934.09;5065694;28;20058;-61
2021/12/18 02:08:47;;;;;;;13.23;8.90;;;;;;;10.01;71.91;103943.13;5066338;28;20171;-61
2021/12/18 02:11:26;;;;;;;12.40;8.55;;;;;;;9.99;72.05;103945.97;5063876;28;20069;-60
2021/12/18 02:14:19;;;;;;;12.55;8.82;;;;;;;10.00;72.39;103949.50;5072244;28;20068;-61
2021/12/18 02:22:19;;;;;;;14.82;8.45;;;;;;;9.98;71.70;103946.09;5058529;28;20044;-61
2021/12/18 02:24:47;;;;;;;14.45;8.88;;;;;;;9.97;72.01;103939.88;5053157;28;20045;-60
2021/12/18 02:27:15;;;;;;;13.32;9.30;;;;;;;9.98;72.20;103940.72;5055170;28;20084;-61
2021/12/18 02:29:43;;;;;;;12.63;9.13;;;;;;;9.97;72.59;103939.03;5064328;28;20123;-59
2021/12/18 02:32:12;;;;;;;14.18;9.60;;;;;;;9.96;72.25;103940.88;5062792;28;20198;-57
2021/12/18 02:34:41;;;;;;;14.80;9.30;;;;;;;9.95;72.58;103938.31;5047430;28;20128;-61
2021/12/18 02:37:12;;;;;;;12.85;8.77;;;;;;;9.95;72.04;103932.97;5054830;28;20408;-61
2021/12/18 02:40:44;;;;;;;16.73;10.43;;;;;;;9.95;72.71;103930.28;5061753;28;20053;-60
2021/12/18 02:42:34;;;;;;;15.90;9.95;;;;;;;9.95;72.42;103932.97;5059118;28;20080;-60
2021/12/18 02:45:02;;;;;;;15.63;9.02;;;;;;;9.94;72.40;103924.03;5052880;28;20068;-61
2021/12/18 02:47:30;;;;;;;13.18;8.80;;;;;;;9.93;72.74;103927.72;5054195;28;20049;-60
2021/12/18 02:49:57;;;;;;;11.55;8.15;;;;;;;9.94;72.22;103925.88;5050511;28;20474;-61
2021/12/18 02:52:29;;;;;;;15.45;9.48;;;;;;;9.93;72.72;103916.97;5062187;28;20053;-60
2021/12/18 02:54:59;;;;;;;15.90;9.77;;;;;;;9.92;72.26;103923.34;5072758;28;20049;-60
2021/12/18 02:57:27;;;;;;;14.18;10.00;;;;;;;9.92;72.81;103923.34;5072180;28;20091;-60
2021/12/18 02:59:57;;;;;;;13.75;9.82;;;;;;;9.92;72.50;103917.97;5070670;28;20493;-60
2021/12/18 03:02:27;;;;;;;13.93;9.45;;;;;;;9.92;72.35;103915.28;5066963;28;20052;-61
2021/12/18 03:04:59;;;;;;;14.82;10.10;;;;;;;9.91;73.03;103913.59;5065894;28;20049;-61
2021/12/18 03:07:29;;;;;;;14.55;9.80;;;;;;;9.92;72.58;103914.44;5065745;28;20081;-60
2021/12/18 03:22:19;;;;;;;16.17;9.35;;;;;;;9.92;72.75;103907.22;5054297;28;20063;-58
2021/12/18 03:24:42;;;;;;;12.50;8.45;;;;;;;9.93;72.83;103908.06;5058484;28;20064;-59
2021/12/18 03:27:10;;;;;;;11.70;8.27;;;;;;;9.92;73.11;103899.16;5060342;28;20067;-51
2021/12/18 03:29:39;;;;;;;14.27;9.07;;;;;;;9.92;72.33;103901.84;5061005;28;20072;-59
2021/12/18 03:32:07;;;;;;;12.57;8.77;;;;;;;9.92;73.03;103901.84;5064470;28;20088;-60
2021/12/18 03:34:35;;;;;;;13.38;9.05;;;;;;;9.92;72.63;103896.47;5074497;28;20072;-61
2021/12/18 03:37:03;;;;;;;11.93;8.18;;;;;;;9.92;72.82;103893.78;5062688;28;20060;-60
2021/12/18 03:39:31;;;;;;;13.60;8.57;;;;;;;9.91;72.76;103894.78;5064967;28;20087;-61
2021/12/18 03:41:59;;;;;;;14.65;9.27;;;;;;;9.90;72.96;103901.16;5058808;28;20099;-61
2021/12/18 03:44:30;;;;;;;12.15;8.55;;;;;;;9.89;72.78;103894.06;5065244;28;20359;-60
2021/12/18 03:46:59;;;;;;;13.25;8.32;;;;;;;9.90;72.75;103898.47;5067645;28;20052;-60
2021/12/18 03:49:27;;;;;;;13.20;8.65;;;;;;;9.90;72.90;103902.97;5065759;28;20053;-61
2021/12/18 03:51:56;;;;;;;12.60;8.32;;;;;;;9.89;72.50;103906.66;5069281;28;20087;-61
2021/12/18 03:54:24;;;;;;;12.48;8.43;;;;;;;9.89;72.62;103904.81;5071482;28;20041;-58
2021/12/18 03:56:52;;;;;;;11.68;8.10;;;;;;;9.88;72.88;103903.13;5073174;28;20048;-60
2021/12/18 03:59:20;;;;;;;10.90;7.47;;;;;;;9.87;73.15;103912.19;5067967;28;20052;-60
2021/12/18 04:01:48;;;;;;;12.48;7.88;;;;;;;9.86;73.24;103913.16;5063786;28;20055;-60
2021/12/18 04:04:18;;;;;;;13.90;8.88;;;;;;;9.86;72.77;103915.84;5075662;28;20167;-60
2021/12/18 04:06:46;;;;;;;12.13;8.43;;;;;;;9.77;73.02;103904.13;5073456;28;20102;-60
2021/12/18 04:09:14;;;;;;;11.25;7.70;;;;;;;9.85;72.76;103914.16;5080523;28;20072;-60
2021/12/18 04:11:42;;;;;;;11.30;8.00;;;;;;;9.85;72.98;103911.47;5070127;28;20080;-61
2021/12/18 04:14:11;;;;;;;12.05;7.97;;;;;;;9.84;72.69;103912.47;5064280;28;20040;-61
2021/12/18 04:16:39;;;;;;;11.13;7.72;;;;;;;9.84;73.31;103911.59;5061206;28;20041;-60
2021/12/18 04:19:07;;;;;;;12.85;7.80;;;;;;;9.84;73.18;103906.22;5066332;28;20049;-60
2021/12/18 04:21:37;;;;;;;12.55;8.07;;;;;;;9.75;72.57;103895.34;5075053;28;20044;-60
2021/12/18 04:24:06;;;;;;;12.75;7.53;;;;;;;9.84;72.99;103914.28;5063921;28;20099;-60
2021/12/18 04:26:35;;;;;;;15.27;8.80;;;;;;;9.84;73.05;103914.28;5067388;28;20080;-61
2021/12/18 04:29:05;;;;;;;9.85;7.20;;;;;;;9.85;72.77;103918.69;5073361;28;20048;-60
2021/12/18 04:31:34;;;;;;;12.75;7.93;;;;;;;9.83;72.80;103913.44;5068790;28;20080;-57
2021/12/18 04:34:02;;;;;;;10.75;7.47;;;;;;;9.83;72.97;103909.91;5056261;28;20057;-60
2021/12/18 04:36:31;;;;;;;12.52;8.40;;;;;;;9.82;72.80;103911.75;5073037;28;20083;-55
2021/12/18 04:39:00;;;;;;;11.82;7.50;;;;;;;9.84;72.62;103919.66;5074345;28;20044;-60
2021/12/18 04:41:38;;;;;;;10.32;7.30;;;;;;;9.82;72.88;103911.75;5064552;28;20094;-61
2021/12/18 04:44:06;;;;;;;11.73;7.68;;;;;;;9.83;73.26;103912.59;5065604;28;20053;-61
2021/12/18 04:46:34;;;;;;;11.98;8.15;;;;;;;9.82;72.91;103911.75;5062383;28;20079;-55
2021/12/18 04:49:03;;;;;;;13.57;8.73;;;;;;;9.84;72.76;103907.09;5056397;28;20091;-61
2021/12/18 04:51:32;;;;;;;11.30;8.10;;;;;;;9.84;73.13;103920.50;5063361;28;20049;-60
2021/12/18 04:54:01;;;;;;;11.45;7.60;;;;;;;9.84;72.65;103909.78;5071835;28;20151;-57
2021/12/18 04:56:29;;;;;;;12.73;7.57;;;;;;;9.85;72.67;103907.94;5077588;28;20041;-59
2021/12/18 04:58:56;;;;;;;12.18;8.00;;;;;;;9.85;73.18;103913.31;5062825;28;20423;-61
2021/12/18 05:01:24;;;;;;;14.73;8.30;;;;;;;9.86;72.69;103918.53;5062974;28;20064;-61
2021/12/18 05:03:52;;;;;;;11.52;7.70;;;;;;;9.87;73.07;103922.91;5062444;28;20045;-61
2021/12/18 05:06:21;;;;;;;12.07;8.45;;;;;;;9.85;72.70;103919.53;5061737;28;20040;-61
2021/12/18 05:08:49;;;;;;;12.88;8.23;;;;;;;9.84;72.94;103916.97;5069768;28;20048;-60
2021/12/18 05:11:18;;;;;;;11.50;7.68;;;;;;;9.84;73.04;103919.66;5075308;28;20048;-60
2021/12/18 05:13:46;;;;;;;11.20;7.40;;;;;;;9.83;73.22;103917.97;5068500;28;20053;-61
2021/12/18 05:16:14;;;;;;;11.38;8.23;;;;;;;9.82;73.20;103914.44;5064136;28;20111;-60
2021/12/18 05:18:42;;;;;;;13.68;8.38;;;;;;;9.83;72.99;103928.72;5071161;28;20079;-60
2021/12/18 05:21:10;;;;;;;11.90;7.50;;;;;;;9.79;72.90;103920.94;5067917;28;20052;-53
2021/12/18 05:23:38;;;;;;;13.45;8.00;;;;;;;9.82;73.41;103932.38;5063133;28;20056;-61
2021/12/18 05:26:06;;;;;;;10.93;7.40;;;;;;;9.79;73.65;103925.47;5063357;28;20093;-61
2021/12/18 05:28:35;;;;;;;12.02;7.93;;;;;;;9.79;73.53;103929.00;5050728;28;20076;-60
2021/12/18 05:31:03;;;;;;;12.18;7.38;;;;;;;9.79;72.98;103929.00;5062962;28;20160;-59
2021/12/18 05:33:31;;;;;;;10.88;7.28;;;;;;;9.79;73.05;103928.16;5065044;28;20048;-60
2021/12/18 05:35:59;;;;;;;11.55;7.93;;;;;;;9.79;72.94;103928.16;5062946;28;20041;-60
2021/12/18 05:38:27;;;;;;;13.13;7.85;;;;;;;9.79;73.54;103925.47;5066837;28;20113;-60
2021/12/18 05:40:54;;;;;;;13.05;8.05;;;;;;;9.78;73.11;103929.13;5068111;28;20288;-60
2021/12/18 05:43:22;;;;;;;10.98;7.28;;;;;;;9.77;73.81;103930.97;5066033;28;20085;-60
2021/12/18 05:45:51;;;;;;;13.15;7.63;;;;;;;9.76;73.29;103931.13;5060284;28;20052;-61
2021/12/18 05:48:19;;;;;;;12.02;8.05;;;;;;;9.75;73.62;103919.53;5055300;28;20099;-56
2021/12/18 05:50:47;;;;;;;12.13;7.50;;;;;;;9.75;73.53;103919.53;5059240;28;20045;-60
2021/12/18 05:53:15;;;;;;;12.18;8.60;;;;;;;9.73;73.48;103924.19;5071648;28;20049;-60
2021/12/18 05:55:43;;;;;;;13.02;8.00;;;;;;;9.73;73.48;103926.03;5073330;28;20071;-61
2021/12/18 05:58:11;;;;;;;13.00;8.05;;;;;;;9.73;73.36;103934.09;5077532;28;20107;-61
2021/12/18 06:00:39;;;;;;;12.00;7.70;;;;;;;9.73;73.80;103944.81;5065714;28;20084;-61
2021/12/18 06:03:09;;;;;;;15.85;8.07;;;;;;;9.74;73.51;103930.41;5064964;28;20053;-60
2021/12/18 06:05:36;;;;;;;12.80;8.00;;;;;;;9.87;73.12;103938.19;5062644;28;20045;-59
2021/12/18 06:08:10;;;;;;;11.93;7.00;;;;;;;10.01;72.67;103940.44;5066697;28;20056;-60
2021/12/18 06:10:39;;;;;;;10.50;8.00;;;;;;;10.17;71.81;103937.19;5071056;28;20103;-61
2021/12/18 06:13:06;;;;;;;15.30;7.53;;;;;;;10.30;71.53;103927.84;5067852;28;20060;-61
2021/12/18 06:15:34;;;;;;;11.65;7.55;;;;;;;10.46;70.65;103929.06;5062112;28;20037;-60
2021/12/18 06:18:03;;;;;;;14.57;7.70;;;;;;;10.62;70.31;103930.16;5069845;28;20040;-59
2021/12/18 06:20:32;;;;;;;12.80;7.95;;;;;;;10.64;70.12;103930.84;5068791;28;20045;-60
2021/12/18 06:23:00;;;;;;;12.43;7.55;;;;;;;10.58;70.25;103931.44;5064771;28;20156;-61
2021/12/18 06:25:41;;;;;;;10.20;7.13;;;;;;;10.52;70.69;103933.84;4842344;28;10000933;-61
2021/12/18 06:28:09;;;;;;;9.77;6.75;;;;;;;10.42;70.65;103934.72;5060375;28;20284;-61
2021/12/18 06:30:36;;;;;;;11.23;6.90;;;;;;;10.33;71.21;103926.72;5067712;28;20040;-60
2021/12/18 06:33:04;;;;;;;9.65;6.47;;;;;;;10.25;71.38;103934.66;5061600;28;20080;-60
2021/12/18 06:35:34;;;;;;;9.48;7.00;;;;;;;10.20;71.58;103935.09;5069433;28;20055;-61
2021/12/18 06:38:02;;;;;;;10.60;6.65;;;;;;;10.17;71.54;103931.81;5063951;28;20471;-61
2021/12/18 06:40:29;;;;;;;10.43;6.60;;;;;;;10.16;71.70;103938.16;5063474;28;20381;-60
2021/12/18 06:42:57;;;;;;;10.75;5.93;;;;;;;10.12;72.39;103937.63;5061842;28;20049;-61
2021/12/18 06:45:25;;;;;;;9.25;6.03;;;;;;;10.07;72.19;103943.41;5064424;28;20091;-55
2021/12/18 06:47:53;;;;;;;12.95;6.32;;;;;;;10.04;72.59;103943.69;5063340;28;20136;-59
2021/12/18 06:50:22;;;;;;;9.00;6.40;;;;;;;10.01;72.59;103940.44;5063748;28;20057;-59
2021/12/18 06:52:52;;;;;;;8.85;5.32;;;;;;;9.99;72.24;103939.75;5059901;28;20454;-59
2021/12/18 06:55:20;;;;;;;10.15;5.43;;;;;;;9.94;72.62;103936.63;5059960;28;20489;-56
2021/12/18 06:57:47;;;;;;;8.23;5.13;;;;;;;9.92;72.68;103925.19;5059369;28;20470;-58
2021/12/18 07:00:17;;;;;;;8.75;5.38;;;;;;;9.88;72.40;103923.78;5062313;28;20057;-59
2021/12/18 07:02:45;;;;;;;8.07;4.95;;;;;;;9.88;72.30;103924.63;5069409;28;20060;-59
2021/12/18 07:05:14;;;;;;;7.53;4.85;;;;;;;9.87;72.69;103930.97;5068943;28;20053;-59
2021/12/18 07:07:42;;;;;;;7.53;4.80;;;;;;;9.79;72.79;103920.09;5063292;28;20048;-60
2021/12/18 07:10:14;;;;;;;7.15;4.68;;;;;;;9.85;72.57;103927.59;5068392;28;20044;-61
2021/12/18 07:12:42;;;;;;;8.10;5.18;;;;;;;9.85;72.82;103927.59;5061874;28;20091;-60
2021/12/18 07:15:11;;;;;;;7.82;4.75;;;;;;;9.79;73.02;103912.88;5060506;28;20079;-60
2021/12/18 07:17:39;;;;;;;7.80;4.60;;;;;;;9.82;72.80;103927.03;5070560;28;20092;-60
2021/12/18 07:20:10;;;;;;;6.85;4.28;;;;;;;9.79;72.73;103929.00;5064939;28;20100;-61
2021/12/18 07:22:38;;;;;;;6.88;4.72;;;;;;;9.68;72.71;103907.66;5071132;28;20076;-61
2021/12/18 07:25:07;;;;;;;6.55;4.43;;;;;;;9.78;72.78;103929.13;5061735;28;20092;-60
2021/12/18 07:27:36;;;;;;;7.90;5.07;;;;;;;9.77;72.76;103924.75;5057756;28;20127;-58
2021/12/18 07:30:05;;;;;;;8.32;5.28;;;;;;;9.77;73.03;103924.75;5060611;28;20084;-60
2021/12/18 07:32:33;;;;;;;7.05;4.25;;;;;;;9.76;73.15;103923.91;5061369;28;20061;-61
2021/12/18 07:35:01;;;;;;;7.07;4.40;;;;;;;9.74;72.72;103923.19;5060652;28;20064;-60
2021/12/18 07:37:29;;;;;;;6.75;4.40;;;;;;;9.73;72.84;103921.50;5060555;28;20049;-61
2021/12/18 07:39:57;;;;;;;6.13;4.45;;;;;;;9.73;72.57;103916.13;5069335;28;20045;-61
2021/12/18 07:42:25;;;;;;;8.95;4.85;;;;;;;9.74;73.02;103925.03;5061816;28;20088;-60
2021/12/18 07:44:54;;;;;;;7.38;4.90;;;;;;;9.62;73.35;103923.47;5072807;28;20068;-58
2021/12/18 07:47:22;;;;;;;9.35;4.95;;;;;;;9.60;73.98;103925.44;5071542;28;20084;-62
2021/12/18 07:49:50;;;;;;;9.25;4.80;;;;;;;9.62;73.83;103929.69;5060731;28;20084;-59
2021/12/18 07:52:17;;;;;;;7.43;4.75;;;;;;;9.64;73.78;103925.03;5050387;28;20338;-60
2021/12/18 07:54:45;;;;;;;9.25;4.80;;;;;;;9.66;72.94;103932.94;5060157;28;20089;-58
2021/12/18 07:57:13;;;;;;;8.95;4.55;;;;;;;9.68;73.37;103939.03;5059433;28;20056;-60
2021/12/18 07:59:41;;;;;;;8.73;4.55;;;;;;;9.68;73.40;103929.13;5064987;28;20048;-60
2021/12/18 08:02:11;;;;;;;9.27;3.90;;;;;;;9.68;73.14;103931.81;5060375;28;20072;-61
2021/12/18 08:04:39;;;;;;;7.15;4.38;;;;;;;9.69;73.15;103929.97;5063598;28;20049;-60
2021/12/18 08:07:07;;;;;;;8.05;4.35;;;;;;;9.69;73.17;103938.03;5060446;28;20107;-61
2021/12/18 08:09:34;;;;;;;8.07;4.22;;;;;;;9.69;73.17;103938.03;5060406;28;20088;-57
2021/12/18 08:12:03;;;;;;;7.15;4.43;;;;;;;9.69;72.98;103932.66;5060092;28;20076;-60
2021/12/18 08:14:32;;;;;;;6.63;4.50;;;;;;;9.68;73.25;103942.56;5060269;28;20101;-60
2021/12/18 08:16:59;;;;;;;11.13;5.10;;;;;;;9.66;72.86;103944.53;5056348;28;20083;-59
2021/12/18 08:19:29;;;;;;;6.72;4.10;;;;;;;9.72;73.21;103922.50;5059281;28;20057;-60
2021/12/18 08:21:57;;;;;;;6.72;4.32;;;;;;;9.93;72.30;103929.56;5059894;28;20540;-60
2021/12/18 08:24:25;;;;;;;5.18;3.55;;;;;;;10.06;71.87;103933.66;5060560;28;20052;-61
2021/12/18 08:26:52;;;;;;;6.88;3.90;;;;;;;10.22;70.92;103937.63;5048546;28;20084;-60
2021/12/18 08:29:20;;;;;;;5.20;3.50;;;;;;;10.33;70.77;103935.63;5059203;28;20167;-60
2021/12/18 08:31:48;;;;;;;6.30;4.10;;;;;;;10.51;69.94;103934.84;5058507;28;20084;-62
2021/12/18 08:34:17;;;;;;;4.95;3.35;;;;;;;10.68;69.43;103934.09;5059895;28;20083;-68
2021/12/18 08:36:46;;;;;;;4.95;3.35;;;;;;;10.83;68.79;103934.47;5058452;28;20070;-60
2021/12/18 08:39:14;;;;;;;4.85;2.92;;;;;;;10.99;68.32;103940.06;5059951;28;20092;-61
2021/12/18 08:41:43;;;;;;;5.13;3.17;;;;;;;10.98;68.12;103939.22;5059172;28;20055;-60
2021/12/18 08:44:10;;;;;;;5.32;3.20;;;;;;;10.90;68.68;103930.19;5060867;28;20080;-61
2021/12/18 08:46:39;;;;;;;5.68;3.40;;;;;;;10.81;68.87;103939.13;5053173;28;20080;-61
2021/12/18 08:49:08;;;;;;;5.28;3.30;;;;;;;10.66;69.27;103934.25;5052708;28;20093;-61
2021/12/18 08:51:37;;;;;;;5.75;3.83;;;;;;;10.53;69.66;103931.03;5058938;28;20049;-61
2021/12/18 08:54:07;;;;;;;4.55;2.85;;;;;;;10.39;70.40;103926.97;5061143;28;20049;-65
2021/12/18 08:56:34;;;;;;;6.55;3.60;;;;;;;10.38;70.35;103930.66;5059437;28;20145;-62
2021/12/18 08:59:06;;;;;;;4.82;3.13;;;;;;;10.33;70.84;103937.47;5063416;28;20587;-61
2021/12/18 09:01:34;;;;;;;5.20;3.20;;;;;;;10.27;70.84;103940.75;5063142;28;20076;-53
2021/12/18 09:04:05;;;;;;;5.22;3.30;;;;;;;10.21;71.36;103939.47;5063433;28;20118;-55
2021/12/18 09:06:34;;;;;;;5.22;2.75;;;;;;;10.18;71.45;103941.56;5063080;28;20045;-61
2021/12/18 09:09:02;;;;;;;5.22;3.05;;;;;;;10.14;71.40;103943.69;5064199;28;20045;-61
2021/12/18 09:11:31;;;;;;;6.65;3.33;;;;;;;10.10;71.67;103937.75;5063339;28;20081;-62
2021/12/18 09:13:59;;;;;;;6.22;3.40;;;;;;;9.87;72.44;103936.34;5057544;28;20045;-61
2021/12/18 09:16:27;;;;;;;5.65;3.08;;;;;;;9.87;72.47;103943.56;5068752;28;20122;-57
2021/12/18 09:18:55;;;;;;;6.22;2.50;;;;;;;9.90;72.80;103945.97;5072574;28;20083;-63
2021/12/18 09:21:23;;;;;;;5.78;3.40;;;;;;;9.91;72.48;103939.59;5065052;28;20469;-62
2021/12/18 09:23:51;;;;;;;7.40;2.95;;;;;;;9.91;72.07;103942.28;5067719;28;20056;-63
2021/12/18 09:26:19;;;;;;;4.93;2.97;;;;;;;9.93;72.67;103940.31;5067361;28;20071;-62
2021/12/18 09:28:48;;;;;;;4.05;2.65;;;;;;;9.95;72.70;103933.81;5066348;28;20057;-62
2021/12/18 09:31:16;;;;;;;4.68;2.75;;;;;;;9.97;72.45;103939.88;5076733;28;20080;-63
2021/12/18 09:33:48;;;;;;;5.53;3.35;;;;;;;9.98;72.91;103932.66;5066826;28;20141;-61
2021/12/18 09:36:16;;;;;;;5.18;2.55;;;;;;;9.96;72.34;103938.19;5065963;28;20068;-62
2021/12/18 09:38:44;;;;;;;4.07;2.60;;;;;;;9.88;72.63;103937.19;5063206;28;20041;-62
2021/12/18 09:41:12;;;;;;;6.93;3.45;;;;;;;9.92;72.63;103943.97;5072752;28;20044;-62
2021/12/18 09:43:40;;;;;;;6.20;3.25;;;;;;;9.92;72.47;103944.84;5073669;28;20068;-59
2021/12/18 09:46:11;;;;;;;5.28;2.90;;;;;;;9.92;72.49;103941.31;5074255;28;20083;-62
2021/12/18 09:48:41;;;;;;;4.63;2.60;;;;;;;9.92;72.48;103930.56;5063430;28;20045;-61
2021/12/18 09:51:18;;;;;;;4.43;2.60;;;;;;;9.91;72.63;103936.91;5064827;28;20052;-62
2021/12/18 09:53:46;;;;;;;;;;;;;;;9.90;72.85;103929.84;5076096;28;20059;-63
2021/12/18 09:56:14;;;;;;;5.38;3.22;;;;;;;9.91;72.57;103935.06;5073738;28;19931;-62
2021/12/18 09:58:41;;;;;;;4.78;2.85;;;;;;;9.91;73.04;103931.53;5068075;28;20171;-62
2021/12/18 10:01:11;;;;;;;5.30;3.10;;;;;;;9.91;73.05;103924.34;5064566;28;20075;-64
2021/12/18 10:03:48;;;;;;;4.50;2.55;;;;;;;9.91;72.93;103931.53;5069282;28;20048;-62
2021/12/18 10:06:36;;;;;;;7.22;3.22;;;;;;;9.90;73.08;103921.78;5070272;28;20087;-62
2021/12/18 10:09:07;;;;;;;4.18;2.60;;;;;;;9.81;72.93;103911.88;5069075;28;20053;-63
2021/12/18 10:11:35;;;;;;;5.15;2.70;;;;;;;9.85;73.03;103921.38;5065288;28;20064;-61
2021/12/18 10:14:04;;;;;;;6.63;2.95;;;;;;;9.85;73.03;103916.00;5071367;28;20049;-62
2021/12/18 10:16:42;;;;;;;5.40;2.90;;;;;;;9.87;72.93;103914.00;5065187;28;20049;-54
2021/12/18 10:19:24;;;;;;;6.28;3.85;;;;;;;9.88;72.96;103910.34;5066004;28;20053;-62
2021/12/18 10:21:55;;;;;;;5.20;3.17;;;;;;;9.88;72.92;103904.97;5065692;28;20049;-62
2021/12/18 10:24:23;;;;;;;4.75;2.85;;;;;;;9.89;73.23;103904.81;5076397;28;20049;-61
2021/12/18 10:26:50;;;;;;;5.35;3.00;;;;;;;9.89;72.99;103902.13;5064291;28;20197;-62
2021/12/18 10:29:40;;;;;;;5.55;3.42;;;;;;;9.88;72.81;103903.13;5065295;28;20049;-62
2021/12/18 10:32:15;;;;;;;5.28;3.05;;;;;;;9.87;73.32;103904.13;5054585;28;20091;-61
2021/12/18 10:34:52;;;;;;;6.63;3.10;;;;;;;9.88;73.07;103896.91;5065230;28;20048;-61
2021/12/18 10:37:22;;;;;;;5.95;3.60;;;;;;;9.88;73.27;103896.91;5065572;28;20486;-61
2021/12/18 10:39:59;;;;;;;6.30;3.20;;;;;;;9.87;73.09;103890.69;5065852;28;20048;-63
2021/12/18 10:42:28;;;;;;;5.22;3.03;;;;;;;9.92;73.20;103895.63;5065004;28;20146;-64
2021/12/18 10:44:59;;;;;;;5.57;3.47;;;;;;;9.94;72.76;103899.88;5065242;28;20045;-62
2021/12/18 10:47:43;;;;;;;6.28;3.95;;;;;;;10.00;72.61;103901.13;5065177;28;20063;-62
2021/12/18 10:50:20;;;;;;;6.00;2.88;;;;;;;10.01;72.96;103894.78;5063021;28;20049;-61
2021/12/18 10:52:54;;;;;;;5.95;3.60;;;;;;;10.02;72.95;103902.69;5068561;28;20056;-61
2021/12/18 10:55:28;;;;;;;5.03;2.80;;;;;;;10.04;72.80;103898.03;5065791;28;20052;-60
2021/12/18 10:57:56;;;;;;;7.13;3.97;;;;;;;10.04;72.80;103894.47;5064641;28;20072;-50
2021/12/18 11:00:42;;;;;;;5.55;3.33;;;;;;;10.06;72.98;103897.88;5065005;28;20057;-60
2021/12/18 11:03:29;;;;;;;5.57;3.38;;;;;;;10.06;72.74;103893.34;5064814;28;20053;-57
2021/12/18 11:06:21;;;;;;;;;;;;;;;10.06;72.64;103889.81;5067072;28;20465;-61
2021/12/18 11:09:09;;;;;;;5.93;3.65;;;;;;;10.08;72.60;103888.69;5064490;28;19925;-61
2021/12/18 11:14:47;;;;;;;5.22;2.95;;;;;;;10.10;72.48;103889.38;5065080;28;20104;-61
2021/12/18 11:17:16;;;;;;;5.88;3.60;;;;;;;10.12;72.56;103883.88;5063863;28;20053;-61
2021/12/18 11:19:46;;;;;;;4.93;3.05;;;;;;;10.14;72.25;103886.41;5064854;28;20040;-61
2021/12/18 11:22:16;;;;;;;5.53;3.38;;;;;;;10.14;72.08;103899.84;5064613;28;20073;-61
2021/12/18 11:24:54;;;;;;;5.38;3.25;;;;;;;10.13;72.45;103893.63;5064947;28;20080;-60
2021/12/18 11:27:23;;;;;;;5.25;3.20;;;;;;;10.13;71.94;103896.31;5063540;28;20056;-61
2021/12/18 11:29:55;;;;;;;6.07;3.05;;;;;;;10.14;72.34;103894.47;5064867;28;20045;-61
2021/12/18 11:32:26;;;;;;;5.20;3.45;;;;;;;10.10;72.06;103878.63;5063847;28;20072;-61
2021/12/18 11:34:57;;;;;;;4.25;2.72;;;;;;;10.10;72.36;103883.16;5064430;28;20045;-60
2021/12/18 11:37:26;;;;;;;5.32;2.78;;;;;;;10.07;72.32;103870.84;5062487;28;20045;-60
2021/12/18 11:39:58;;;;;;;3.88;2.55;;;;;;;10.09;72.15;103876.09;5064274;28;20041;-60
2021/12/18 11:42:29;;;;;;;4.97;2.67;;;;;;;10.10;72.11;103870.56;5050410;28;20049;-60
2021/12/18 11:44:59;;;;;;;5.95;2.78;;;;;;;10.09;72.70;103866.19;5064656;28;20049;-61
2021/12/18 11:47:30;;;;;;;4.63;3.28;;;;;;;10.09;72.19;103858.13;5065778;28;20107;-61
2021/12/18 11:50:03;;;;;;;6.13;3.05;;;;;;;10.09;72.71;103868.03;5061986;28;20049;-60
2021/12/18 11:52:53;;;;;;;4.68;2.95;;;;;;;9.99;72.45;103849.25;5063818;28;20087;-60
2021/12/18 11:55:22;;;;;;;4.78;2.88;;;;;;;10.08;72.19;103863.66;5064193;28;20045;-61
2021/12/18 11:57:51;;;;;;;4.50;2.95;;;;;;;10.06;72.66;103858.41;5064380;28;20063;-59
2021/12/18 12:00:43;;;;;;;4.43;2.88;;;;;;;10.05;72.71;103858.56;5062387;28;20056;-61
2021/12/18 12:03:13;;;;;;;4.50;3.03;;;;;;;10.04;72.60;103854.19;5063321;28;20045;-61
2021/12/18 12:05:45;;;;;;;5.53;3.50;;;;;;;10.04;72.81;103854.19;5074273;28;20103;-60
2021/12/18 12:08:29;;;;;;;4.97;2.72;;;;;;;10.02;72.47;103851.63;5072520;28;20152;-60
2021/12/18 12:11:28;;;;;;;4.80;2.95;;;;;;;9.99;72.85;103851.06;5063643;28;20049;-60
2021/12/18 12:13:59;;;;;;;4.75;3.05;;;;;;;9.97;72.83;103853.06;5063447;28;20044;-61
2021/12/18 12:17:15;;;;;;;7.05;2.70;;;;;;;9.97;72.65;103848.53;5062624;28;20053;-62